Time;durP1;ratioP1;P1;durP2;ratioP2;P2;SDS_P1;SDS_P2;PMS_P1;PMS_P2;Temp;Humidity;BMP_temperature;BMP_pressure;BME280_temperature;BME280_humidity;BME280_pressure;Samples;Min_cycle;Max_cycle;Signal;HPM_P1;HPM_P2
2021/07/10 00:01:36;;;;;;;0.20;0.20;;;;;;;14.62;99.83;101037.84;5031664;28;20060;-89
2021/07/10 00:04:09;;;;;;;0.20;0.20;;;;;;;14.73;100.00;101061.25;5024775;28;20049;-87
2021/07/10 00:06:38;;;;;;;0.20;0.20;;;;;;;14.61;100.00;101056.22;5050938;28;20056;-90
2021/07/10 00:09:08;;;;;;;0.20;0.20;;;;;;;14.66;100.00;101058.09;5033228;28;20056;-88
2021/07/10 00:11:43;;;;;;;0.28;0.28;;;;;;;14.78;99.70;101058.44;5029703;28;20049;-90
2021/07/10 00:14:16;;;;;;;0.20;0.20;;;;;;;14.79;99.82;101062.00;5031224;28;20056;-89
2021/07/10 00:16:49;;;;;;;0.20;0.20;;;;;;;14.87;99.62;101057.75;5041694;28;20051;-87
2021/07/10 00:19:23;;;;;;;0.13;0.13;;;;;;;14.85;100.00;101060.81;5028806;28;20053;-88
2021/07/10 00:21:57;;;;;;;0.20;0.20;;;;;;;14.85;99.76;101055.31;5040279;28;20067;-89
2021/07/10 00:24:32;;;;;;;0.20;0.20;;;;;;;14.87;99.63;101044.06;5023471;28;20049;-88
2021/07/10 00:27:05;;;;;;;0.20;0.20;;;;;;;14.79;100.00;101042.84;5028406;28;20164;-88
2021/07/10 00:29:39;;;;;;;0.20;0.20;;;;;;;14.70;100.00;101042.69;5024325;28;20057;-88
2021/07/10 00:32:12;;;;;;;0.20;0.20;;;;;;;14.82;100.00;101046.88;5034736;28;20065;-91
2021/07/10 00:34:43;;;;;;;0.20;0.20;;;;;;;14.87;99.90;101047.59;5044955;28;20059;-88
2021/07/10 00:37:17;;;;;;;0.20;0.20;;;;;;;14.84;99.90;101045.47;5040261;28;20048;-89
2021/07/10 00:39:51;;;;;;;0.20;0.20;;;;;;;14.86;99.81;101042.41;5025067;28;20053;-88
2021/07/10 00:42:25;;;;;;;0.20;0.20;;;;;;;14.88;99.56;101045.69;5049438;28;20052;-88
2021/07/10 00:44:55;;;;;;;0.15;0.15;;;;;;;14.86;99.85;101053.38;5046661;28;20381;-90
2021/07/10 00:47:28;;;;;;;0.15;0.15;;;;;;;14.85;99.98;101049.03;5039756;28;20046;-90
2021/07/10 00:50:07;;;;;;;0.20;0.20;;;;;;;14.89;99.47;101041.84;5027754;28;20057;-90
2021/07/10 00:52:40;;;;;;;0.20;0.20;;;;;;;14.89;99.57;101048.13;5041407;28;20036;-89
2021/07/10 00:55:15;;;;;;;0.10;0.10;;;;;;;14.92;99.03;101031.06;5031443;28;20049;-91
2021/07/10 00:57:44;;;;;;;0.20;0.20;;;;;;;14.95;99.27;101038.69;5050008;28;20056;-89
2021/07/10 01:00:20;;;;;;;0.15;0.15;;;;;;;14.94;99.57;101030.78;5041068;28;20044;-88
2021/07/10 01:02:56;;;;;;;0.15;0.15;;;;;;;14.91;99.77;101032.19;5042151;28;20052;-88
2021/07/10 01:05:27;;;;;;;0.20;0.20;;;;;;;14.83;99.72;101027.41;5049672;28;20044;-87
2021/07/10 01:08:02;;;;;;;0.20;0.20;;;;;;;14.82;99.96;101020.31;5046081;28;20037;-90
2021/07/10 01:10:37;;;;;;;0.20;0.20;;;;;;;14.89;100.00;101028.94;5028393;28;20045;-88
2021/07/10 01:13:10;;;;;;;0.20;0.20;;;;;;;14.84;100.00;101029.03;5047448;28;20055;-90
2021/07/10 01:15:43;;;;;;;0.20;0.20;;;;;;;14.79;99.98;101020.91;5024531;28;20055;-88
2021/07/10 01:18:17;;;;;;;0.20;0.20;;;;;;;14.82;99.59;101017.56;5023852;28;20057;-89
2021/07/10 01:20:54;;;;;;;0.20;0.20;;;;;;;14.78;99.40;101014.59;5032023;28;20049;-90
2021/07/10 01:23:27;;;;;;;0.20;0.20;;;;;;;14.78;99.37;101013.81;5026942;28;20057;-91
2021/07/10 01:25:56;;;;;;;0.20;0.20;;;;;;;14.93;98.79;101013.53;5033033;28;20041;-90
2021/07/10 01:28:29;;;;;;;0.20;0.20;;;;;;;14.81;99.31;101018.66;5043785;28;20052;-90
2021/07/10 01:30:59;;;;;;;0.20;0.20;;;;;;;14.75;99.28;101017.94;5026176;28;20060;-88
2021/07/10 01:33:31;;;;;;;0.10;0.10;;;;;;;14.53;99.21;100976.63;5052203;28;20429;-90
2021/07/10 01:36:01;;;;;;;0.20;0.20;;;;;;;14.68;99.16;100998.34;5050148;28;20046;-89
2021/07/10 01:38:34;;;;;;;0.28;0.20;;;;;;;14.70;99.54;101009.00;5037061;28;20049;-91
2021/07/10 01:41:06;;;;;;;0.20;0.20;;;;;;;14.76;99.66;101013.28;5037194;28;20693;-91
2021/07/10 01:43:34;;;;;;;0.20;0.20;;;;;;;14.61;99.82;100993.22;5025404;28;20049;-90
2021/07/10 01:46:08;;;;;;;0.20;0.20;;;;;;;14.69;99.79;101005.44;5043865;28;20052;-90
2021/07/10 01:48:41;;;;;;;0.20;0.20;;;;;;;14.64;99.75;100991.84;5024193;28;20670;-90
2021/07/10 01:51:16;;;;;;;0.20;0.20;;;;;;;14.59;99.23;100978.19;5046699;28;20065;-90
2021/07/10 01:53:50;;;;;;;0.20;0.20;;;;;;;14.69;99.32;101004.63;5035854;28;20150;-89
2021/07/10 01:56:24;;;;;;;0.20;0.20;;;;;;;14.79;99.06;100999.00;5019845;28;20037;-88
2021/07/10 01:59:23;;;;;;;0.20;0.20;;;;;;;14.68;99.54;100992.88;5038859;28;20056;-90
2021/07/10 02:01:52;;;;;;;0.20;0.20;;;;;;;14.64;99.97;100994.59;5049734;28;20048;-90
2021/07/10 02:04:26;;;;;;;0.20;0.20;;;;;;;14.64;100.00;100983.63;5034329;28;20049;-90
2021/07/10 02:06:58;;;;;;;0.20;0.20;;;;;;;14.70;99.65;100982.41;5046565;28;20057;-89
2021/07/10 02:09:27;;;;;;;0.20;0.20;;;;;;;14.71;99.49;100975.81;5037732;28;20060;-90
2021/07/10 02:12:01;;;;;;;0.20;0.20;;;;;;;14.56;99.76;100971.38;5049284;28;20044;-88
2021/07/10 02:14:30;;;;;;;0.20;0.20;;;;;;;14.59;99.34;100978.19;5034110;28;20056;-89
2021/07/10 02:17:06;;;;;;;0.20;0.20;;;;;;;14.66;99.53;100986.06;5036246;28;20045;-88
2021/07/10 02:19:38;;;;;;;0.20;0.20;;;;;;;14.61;99.01;100985.00;5035429;28;20385;-90
2021/07/10 02:22:08;;;;;;;0.20;0.20;;;;;;;14.61;99.85;100978.69;5035347;28;20049;-90
2021/07/10 02:24:42;;;;;;;0.20;0.20;;;;;;;14.58;99.95;100977.41;5058489;28;20056;-90
2021/07/10 02:27:12;;;;;;;0.20;0.20;;;;;;;14.49;99.41;100960.00;5043263;28;20049;-90
2021/07/10 02:29:47;;;;;;;0.20;0.20;;;;;;;14.54;99.31;100968.16;5047854;28;20046;-90
2021/07/10 02:32:21;;;;;;;0.20;0.20;;;;;;;14.37;99.78;100948.72;5034739;28;20071;-90
2021/07/10 02:34:50;;;;;;;0.20;0.20;;;;;;;14.58;99.76;100971.91;5027268;28;20060;-90
2021/07/10 02:37:21;;;;;;;0.20;0.20;;;;;;;14.57;99.62;100955.75;5038343;28;20053;-90
2021/07/10 02:40:20;;;;;;;0.10;0.10;;;;;;;14.52;99.57;100972.28;5060820;28;20059;-91
2021/07/10 02:43:06;;;;;;;0.40;0.20;;;;;;;14.50;99.42;100977.25;5049879;28;20055;-89
2021/07/10 02:45:36;;;;;;;0.20;0.20;;;;;;;14.48;99.52;100969.34;5049495;28;20052;-90
2021/07/10 02:48:10;;;;;;;0.20;0.20;;;;;;;14.62;99.33;100983.06;5035497;28;20061;-88
2021/07/10 02:50:45;;;;;;;0.17;0.17;;;;;;;14.48;99.14;100977.56;5048482;28;20488;-89
2021/07/10 02:53:31;;;;;;;0.20;0.20;;;;;;;14.42;99.05;100976.81;5031907;28;20057;-90
2021/07/10 02:56:09;;;;;;;0.20;0.20;;;;;;;14.34;99.54;100973.97;5031088;28;20072;-91
2021/07/10 02:58:44;;;;;;;0.17;0.17;;;;;;;14.48;99.45;100976.75;5035816;28;20046;-89
2021/07/10 03:01:17;;;;;;;0.40;0.32;;;;;;;14.36;99.76;100964.34;5032865;28;20057;-90
2021/07/10 03:03:46;;;;;;;0.20;0.20;;;;;;;14.37;99.47;100959.66;5041934;28;20397;-89
2021/07/10 03:06:50;;;;;;;0.20;0.20;;;;;;;14.32;99.89;100971.53;5047637;28;20056;-90
2021/07/10 03:09:41;;;;;;;0.20;0.20;;;;;;;14.33;99.69;100975.06;5035188;28;20052;-91
2021/07/10 03:12:14;;;;;;;0.10;0.10;;;;;;;14.24;99.74;100964.78;5025242;28;20060;-90
2021/07/10 03:14:48;;;;;;;0.20;0.20;;;;;;;14.24;100.00;100972.19;5045332;28;20041;-90
2021/07/10 03:17:21;;;;;;;0.20;0.20;;;;;;;14.30;99.28;100968.25;5039938;28;20045;-90
2021/07/10 03:19:49;;;;;;;0.20;0.20;;;;;;;14.30;99.51;100973.72;5062911;28;20057;-89
2021/07/10 03:22:17;;;;;;;0.20;0.20;;;;;;;14.23;99.12;100970.56;5033949;28;20056;-89
2021/07/10 03:24:52;;;;;;;0.20;0.20;;;;;;;14.24;98.94;100967.53;5036897;28;20729;-90
2021/07/10 03:27:31;;;;;;;0.10;0.10;;;;;;;14.12;98.53;100959.75;5041097;28;20045;-90
2021/07/10 03:30:04;;;;;;;0.10;0.10;;;;;;;14.16;98.87;100964.66;5032911;28;20041;-88
2021/07/10 03:32:58;;;;;;;0.20;0.20;;;;;;;14.26;99.21;100972.69;5029543;28;20072;-89
2021/07/10 03:35:38;;;;;;;0.20;0.20;;;;;;;14.20;99.38;100962.94;5034227;28;20057;-90
2021/07/10 03:38:15;;;;;;;0.20;0.20;;;;;;;14.13;99.45;100974.28;5051358;28;20552;-89
2021/07/10 03:40:50;;;;;;;0.20;0.20;;;;;;;14.17;98.96;100974.47;5050745;28;20428;-89
2021/07/10 03:43:23;;;;;;;0.20;0.20;;;;;;;14.12;99.15;100975.38;5027548;28;20498;-89
2021/07/10 03:45:56;;;;;;;0.20;0.20;;;;;;;14.09;98.41;100963.09;5026890;28;20052;-88
2021/07/10 03:48:30;;;;;;;0.20;0.20;;;;;;;14.19;98.26;100972.25;5052064;28;20056;-88
2021/07/10 03:51:03;;;;;;;0.20;0.20;;;;;;;14.20;98.92;100971.16;5030553;28;20509;-90
2021/07/10 03:53:33;;;;;;;0.20;0.20;;;;;;;14.33;98.06;100975.06;5049043;28;20053;-91
2021/07/10 03:56:03;;;;;;;0.20;0.20;;;;;;;14.13;99.01;100977.00;5029758;28;20052;-89
2021/07/10 03:58:37;;;;;;;0.20;0.20;;;;;;;14.24;98.54;100983.94;5034443;28;20041;-90
2021/07/10 04:01:09;;;;;;;0.20;0.20;;;;;;;14.10;98.50;100974.88;5029044;28;20055;-90
2021/07/10 04:03:43;;;;;;;0.20;0.20;;;;;;;14.13;99.43;100971.53;5032435;28;20048;-89
2021/07/10 04:06:17;;;;;;;0.20;0.20;;;;;;;14.05;99.70;100964.00;5041533;28;20048;-88
2021/07/10 04:08:50;;;;;;;0.17;0.17;;;;;;;14.09;98.88;100982.25;5055849;28;20044;-88
2021/07/10 04:11:23;;;;;;;0.10;0.10;;;;;;;14.20;98.52;100982.91;5035109;28;20057;-88
2021/07/10 04:13:51;;;;;;;0.10;0.10;;;;;;;14.18;97.96;100982.38;5034054;28;20045;-88
2021/07/10 04:16:19;;;;;;;0.20;0.20;;;;;;;14.07;98.19;100978.19;5042521;28;20042;-91
2021/07/10 04:18:52;;;;;;;0.20;0.20;;;;;;;14.09;98.56;100984.97;5029090;28;20136;-87
2021/07/10 04:21:26;;;;;;;0.20;0.20;;;;;;;14.03;99.13;100985.34;5052479;28;20363;-89
2021/07/10 04:24:00;;;;;;;0.20;0.20;;;;;;;14.02;98.79;100978.28;5049778;28;20050;-90
2021/07/10 04:26:29;;;;;;;0.20;0.20;;;;;;;14.06;98.56;100990.25;5040084;28;20371;-89
2021/07/10 04:29:26;;;;;;;0.20;0.20;;;;;;;14.12;98.51;100984.38;5034341;28;20075;-90
2021/07/10 04:32:00;;;;;;;0.10;0.10;;;;;;;14.00;98.66;100978.53;5029008;28;20048;-89
2021/07/10 04:34:33;;;;;;;0.20;0.20;;;;;;;14.09;98.79;100976.78;5038722;28;20502;-89
2021/07/10 04:37:07;;;;;;;0.10;0.10;;;;;;;14.09;97.55;100982.25;5045202;28;20053;-89
2021/07/10 04:39:35;;;;;;;0.13;0.13;;;;;;;14.14;97.96;100994.22;5042187;28;20049;-90
2021/07/10 04:46:11;;;;;;;0.10;0.10;;;;;;;13.97;97.34;100986.53;5042741;28;20397;-90
2021/07/10 04:48:45;;;;;;;0.20;0.20;;;;;;;13.96;98.65;100996.66;5043830;28;20052;-90
2021/07/10 04:51:13;;;;;;;0.20;0.20;;;;;;;13.92;97.94;100995.63;5050665;28;20053;-90
2021/07/10 04:53:46;;;;;;;0.10;0.10;;;;;;;13.97;98.04;100992.00;5034913;28;20045;-91
2021/07/10 04:56:21;;;;;;;0.20;0.20;;;;;;;13.97;98.48;100997.50;5022773;28;20057;-90
2021/07/10 04:58:55;;;;;;;0.10;0.10;;;;;;;13.95;98.05;100981.38;5040817;28;20033;-89
2021/07/10 05:01:25;;;;;;;0.20;0.20;;;;;;;14.06;98.84;100991.06;5034099;28;20409;-90
2021/07/10 05:03:55;;;;;;;0.20;0.20;;;;;;;13.94;98.28;100977.00;5035842;28;20049;-90
2021/07/10 05:06:57;;;;;;;0.20;0.20;;;;;;;14.01;97.91;100984.84;5044477;28;20052;-89
2021/07/10 05:09:32;;;;;;;0.20;0.20;;;;;;;14.05;98.16;100983.16;5029800;28;20045;-90
2021/07/10 05:12:03;;;;;;;0.10;0.10;;;;;;;14.06;97.81;100988.31;5031441;28;20056;-89
2021/07/10 05:14:40;;;;;;;0.10;0.10;;;;;;;14.06;97.11;100991.06;5049234;28;20401;-89
2021/07/10 05:17:16;;;;;;;0.17;0.17;;;;;;;14.06;97.90;100985.59;5032493;28;20044;-90
2021/07/10 05:20:14;;;;;;;0.10;0.10;;;;;;;14.04;97.30;100976.03;5037972;28;20055;-90
2021/07/10 05:22:51;;;;;;;0.20;0.20;;;;;;;14.13;98.20;100985.22;5033564;28;20496;-91
2021/07/10 05:25:26;;;;;;;0.20;0.20;;;;;;;13.84;97.32;100941.59;5058293;28;20400;-91
2021/07/10 05:27:59;;;;;;;0.20;0.20;;;;;;;14.19;97.36;100988.69;5031279;28;20124;-90
2021/07/10 05:30:27;;;;;;;0.10;0.10;;;;;;;14.12;96.86;100965.22;5044696;28;20049;-91
2021/07/10 05:32:57;;;;;;;0.10;0.10;;;;;;;14.35;96.56;100961.88;5020599;28;20057;-90
2021/07/10 05:39:33;;;;;;;0.20;0.20;;;;;;;14.38;96.74;100984.00;5049160;28;20397;-88
2021/07/10 05:42:07;;;;;;;0.10;0.10;;;;;;;14.38;97.23;100981.28;5050893;28;20377;-89
2021/07/10 05:45:12;;;;;;;0.10;0.10;;;;;;;14.39;96.82;100980.16;5043271;28;20036;-89
2021/07/10 05:48:51;;;;;;;0.10;0.10;;;;;;;14.36;96.60;100988.97;5031558;28;20517;-89
2021/07/10 05:55:10;;;;;;;0.20;0.20;;;;;;;14.49;96.02;100983.84;5034039;28;20072;-90
2021/07/10 06:02:40;;;;;;;0.20;0.20;;;;;;;14.49;97.36;100995.63;5052477;28;20048;-91
2021/07/10 06:05:14;;;;;;;0.20;0.20;;;;;;;14.39;96.79;100991.13;5030954;28;20410;-90
2021/07/10 06:07:47;;;;;;;0.10;0.10;;;;;;;14.47;96.74;100997.81;5032175;28;20517;-89
2021/07/10 06:10:17;;;;;;;0.20;0.20;;;;;;;14.49;96.72;101003.03;5033014;28;20053;-89
2021/07/10 06:12:45;;;;;;;0.20;0.20;;;;;;;14.44;97.27;101002.00;5028837;28;20037;-90
2021/07/10 06:15:19;;;;;;;0.20;0.20;;;;;;;14.46;97.69;100999.75;5028256;28;20056;-88
2021/07/10 06:21:40;;;;;;;0.10;0.10;;;;;;;14.45;98.47;101008.28;5044232;28;20516;-91
2021/07/10 06:24:13;;;;;;;0.10;0.10;;;;;;;14.45;98.03;101005.53;5032372;28;20076;-88
2021/07/10 06:26:45;;;;;;;0.10;0.10;;;;;;;14.33;98.41;101005.19;5057920;28;20057;-91
2021/07/10 06:29:36;;;;;;;0.10;0.10;;;;;;;14.51;97.26;101001.59;5050405;28;20049;-89
2021/07/10 06:32:11;;;;;;;0.10;0.10;;;;;;;14.53;98.35;101017.72;5045758;28;20064;-90
2021/07/10 06:34:45;;;;;;;0.20;0.20;;;;;;;14.52;96.39;101013.38;5022697;28;20493;-90
2021/07/10 06:37:21;;;;;;;0.10;0.10;;;;;;;14.36;98.17;100991.72;5047759;28;20517;-90
2021/07/10 06:39:50;;;;;;;0.10;0.10;;;;;;;14.52;97.27;101008.69;5032253;28;20049;-89
2021/07/10 06:42:29;;;;;;;0.10;0.10;;;;;;;14.61;97.68;101015.13;5056600;28;20055;-89
2021/07/10 06:44:58;;;;;;;0.20;0.20;;;;;;;14.48;97.69;100993.97;5037351;28;20060;-90
2021/07/10 06:52:22;;;;;;;0.20;0.20;;;;;;;14.67;97.12;101012.34;5058301;28;20064;-89
2021/07/10 06:55:04;;;;;;;0.45;0.20;;;;;;;14.59;97.82;101002.84;5034045;28;20509;-88
2021/07/10 06:57:40;;;;;;;0.20;0.20;;;;;;;14.60;97.23;101013.50;5029683;28;20049;-89
2021/07/10 07:00:16;;;;;;;0.13;0.13;;;;;;;14.62;97.48;101019.53;5043971;28;20056;-89
2021/07/10 07:02:45;;;;;;;0.20;0.20;;;;;;;14.93;97.12;101029.16;5045303;28;20053;-89
2021/07/10 07:05:47;;;;;;;0.20;0.20;;;;;;;14.94;97.67;101028.03;5029165;28;20053;-88
2021/07/10 07:08:55;;;;;;;0.10;0.10;;;;;;;14.99;96.65;101027.94;5033576;28;20056;-89
2021/07/10 07:15:57;;;;;;;0.10;0.10;;;;;;;15.48;95.96;101034.72;5047626;28;20041;-89
2021/07/10 07:18:55;;;;;;;0.10;0.10;;;;;;;15.75;95.18;101040.50;5053043;28;20052;-88
2021/07/10 07:21:36;;;;;;;0.10;0.10;;;;;;;15.91;95.58;101035.53;5046208;28;20037;-89
2021/07/10 07:24:06;;;;;;;0.10;0.10;;;;;;;15.92;95.72;101042.66;5031551;28;20060;-91
2021/07/10 07:26:45;;;;;;;0.20;0.20;;;;;;;16.17;93.99;101043.22;5046231;28;20127;-89
2021/07/10 07:29:18;;;;;;;0.20;0.20;;;;;;;16.13;94.46;101043.03;5025962;28;20053;-89
2021/07/10 07:31:56;;;;;;;0.20;0.20;;;;;;;16.23;93.02;101045.53;5044440;28;20041;-91
2021/07/10 07:34:31;;;;;;;;;;;;;;;16.38;95.20;101035.31;5031460;28;20049;-89
2021/07/10 07:37:01;;;;;;;0.10;0.10;;;;;;;16.20;93.50;101026.13;5049158;28;19925;-89
2021/07/10 07:39:35;;;;;;;0.20;0.20;;;;;;;16.04;94.59;100993.53;5050973;28;20056;-91
2021/07/10 07:42:08;;;;;;;0.20;0.20;;;;;;;16.43;91.70;101040.69;5043534;28;20052;-90
2021/07/10 07:45:10;;;;;;;0.20;0.20;;;;;;;16.31;91.69;101047.56;5035013;28;20053;-91
2021/07/10 07:47:40;;;;;;;0.10;0.10;;;;;;;16.24;91.92;101047.16;5028926;28;20060;-91
2021/07/10 07:50:12;;;;;;;0.30;0.22;;;;;;;16.27;91.83;101038.31;5031125;28;20049;-90
2021/07/10 07:53:01;;;;;;;0.20;0.20;;;;;;;16.27;95.30;101027.31;5047725;28;20060;-92
2021/07/10 07:55:31;;;;;;;0.10;0.10;;;;;;;16.19;92.84;101030.81;5020809;28;20045;-92
2021/07/10 07:58:00;;;;;;;0.20;0.20;;;;;;;16.54;93.56;101033.03;5034131;28;20048;-91
2021/07/10 08:01:31;;;;;;;0.20;0.20;;;;;;;16.44;91.50;101043.13;5032244;28;20052;-91
2021/07/10 08:04:26;;;;;;;0.20;0.20;;;;;;;16.22;92.84;101054.09;5032840;28;20052;-89
2021/07/10 08:07:07;;;;;;;0.20;0.20;;;;;;;16.04;92.11;101048.44;5028674;28;20048;-90
2021/07/10 08:09:44;;;;;;;0.20;0.20;;;;;;;16.00;91.49;101046.59;5059998;28;20041;-90
2021/07/10 08:12:26;;;;;;;0.10;0.10;;;;;;;16.07;91.42;101056.03;5026571;28;20060;-91
2021/07/10 08:14:58;;;;;;;0.20;0.20;;;;;;;16.12;91.91;101057.88;5052995;28;20048;-92
2021/07/10 08:17:54;;;;;;;0.17;0.17;;;;;;;16.31;90.44;101060.47;5024887;28;20064;-89
2021/07/10 08:20:22;;;;;;;0.20;0.20;;;;;;;16.28;92.08;101058.34;5026634;28;20041;-90
2021/07/10 08:28:03;;;;;;;0.20;0.20;;;;;;;16.30;92.14;101072.59;5043793;28;20060;-92
2021/07/10 08:30:34;;;;;;;0.10;0.10;;;;;;;16.26;91.13;101063.34;5027167;28;20049;-89
2021/07/10 08:33:13;;;;;;;0.20;0.20;;;;;;;16.00;91.07;101068.56;5046721;28;20049;-89
2021/07/10 08:35:42;;;;;;;0.20;0.20;;;;;;;15.88;90.91;101071.81;5035138;28;20048;-93
2021/07/10 08:38:29;;;;;;;0.20;0.20;;;;;;;15.73;92.98;101072.91;5046018;28;20049;-90
2021/07/10 08:41:07;;;;;;;0.13;0.13;;;;;;;15.62;93.31;101081.34;5043155;28;20048;-90
2021/07/10 08:43:54;;;;;;;0.10;0.10;;;;;;;15.78;92.75;101075.56;5027489;28;20052;-89
2021/07/10 08:46:25;;;;;;;0.20;0.20;;;;;;;15.60;93.28;101071.81;5029288;28;20052;-90
2021/07/10 08:49:00;;;;;;;0.20;0.20;;;;;;;15.68;94.75;101068.34;5041961;28;20268;-91
2021/07/10 08:52:13;;;;;;;0.10;0.10;;;;;;;16.00;93.17;101074.06;5044071;28;20071;-90
2021/07/10 08:54:49;;;;;;;0.13;0.13;;;;;;;16.01;91.68;101075.69;5043731;28;20037;-91
2021/07/10 08:57:22;;;;;;;0.20;0.20;;;;;;;16.12;90.96;101063.38;5044028;28;20059;-90
2021/07/10 09:00:22;;;;;;;0.20;0.20;;;;;;;16.51;88.92;101061.94;5032809;28;20049;-91
2021/07/10 09:03:27;;;;;;;0.20;0.20;;;;;;;16.72;87.62;101058.69;5025789;28;20072;-90
2021/07/10 09:06:02;;;;;;;0.10;0.10;;;;;;;16.81;89.88;101059.56;5031694;28;20045;-89
2021/07/10 09:09:28;;;;;;;0.10;0.10;;;;;;;16.96;87.43;101063.91;5034480;28;20045;-91
2021/07/10 09:12:00;;;;;;;0.17;0.17;;;;;;;17.06;88.74;101051.84;5042846;28;20036;-90
2021/07/10 09:14:34;;;;;;;0.10;0.10;;;;;;;17.02;88.28;101070.91;5045898;28;20041;-90
2021/07/10 09:17:15;;;;;;;0.20;0.20;;;;;;;16.72;87.03;101050.44;5031032;28;20048;-89
2021/07/10 09:19:50;;;;;;;0.20;0.20;;;;;;;16.72;86.99;101065.00;5031763;28;20069;-92
2021/07/10 09:22:35;;;;;;;0.13;0.13;;;;;;;16.60;87.76;101075.72;5040202;28;20053;-89
2021/07/10 09:25:22;;;;;;;0.20;0.20;;;;;;;16.61;88.48;101060.88;5028566;28;20052;-89
2021/07/10 09:27:54;;;;;;;0.20;0.20;;;;;;;16.79;85.74;101073.63;5023892;28;20650;-90
2021/07/10 09:30:35;;;;;;;0.10;0.10;;;;;;;16.70;87.98;101063.72;5025644;28;20049;-89
2021/07/10 09:33:14;;;;;;;0.20;0.20;;;;;;;16.98;86.20;101069.91;5037600;28;20409;-90
2021/07/10 09:36:15;;;;;;;0.20;0.20;;;;;;;17.11;88.18;101070.94;5034295;28;20221;-89
2021/07/10 09:38:52;;;;;;;0.20;0.20;;;;;;;17.27;84.90;101066.66;5047651;28;20049;-89
2021/07/10 09:41:28;;;;;;;0.10;0.10;;;;;;;17.50;84.46;101063.88;5048360;28;20501;-91
2021/07/10 09:44:12;;;;;;;0.20;0.20;;;;;;;17.55;83.66;101060.16;5049818;28;20045;-90
2021/07/10 09:47:17;;;;;;;0.20;0.20;;;;;;;17.54;83.52;101062.09;5050124;28;20040;-89
2021/07/10 09:50:10;;;;;;;0.10;0.10;;;;;;;17.79;81.14;101055.06;5050813;28;20068;-88
2021/07/10 09:53:21;;;;;;;0.20;0.20;;;;;;;18.40;82.18;101050.81;5025321;28;20048;-88
2021/07/10 09:56:09;;;;;;;0.10;0.10;;;;;;;18.84;83.13;101048.81;5032157;28;20053;-88
2021/07/10 09:58:38;;;;;;;0.10;0.10;;;;;;;18.74;79.38;101033.44;5026948;28;20060;-88
2021/07/10 10:01:41;;;;;;;0.10;0.10;;;;;;;18.62;78.50;101053.38;5042308;28;20049;-88
2021/07/10 10:04:24;;;;;;;0.10;0.10;;;;;;;17.83;80.28;101034.00;5049506;28;20060;-89
2021/07/10 10:07:02;;;;;;;0.10;0.10;;;;;;;18.12;81.12;101053.88;4992421;28;20517;-90
2021/07/10 10:09:39;;;;;;;0.10;0.10;;;;;;;18.08;81.15;101053.69;5034618;28;20060;-90
2021/07/10 10:12:31;;;;;;;0.10;0.10;;;;;;;18.03;83.25;101056.59;5043376;28;20060;-88
2021/07/10 10:15:02;;;;;;;0.20;0.20;;;;;;;17.85;82.31;101037.25;5025810;28;20064;-90
2021/07/10 10:17:38;;;;;;;0.20;0.20;;;;;;;17.87;81.76;101056.22;5023568;28;20420;-89
2021/07/10 10:20:12;;;;;;;0.20;0.20;;;;;;;17.95;82.52;101058.22;5021401;28;20413;-87
2021/07/10 10:22:46;;;;;;;0.10;0.10;;;;;;;18.00;81.22;101060.00;5041803;28;20049;-89
2021/07/10 10:25:20;;;;;;;0.20;0.20;;;;;;;18.12;80.24;101062.94;5046233;28;20049;-90
2021/07/10 10:27:52;;;;;;;0.20;0.20;;;;;;;18.13;80.90;101063.75;5019269;28;20061;-90
2021/07/10 10:30:26;;;;;;;0.20;0.20;;;;;;;18.26;76.77;101076.56;5033396;28;20063;-89
2021/07/10 10:33:16;;;;;;;0.10;0.10;;;;;;;18.19;78.54;101068.78;5047069;28;20049;-89
2021/07/10 10:35:53;;;;;;;0.20;0.20;;;;;;;18.43;82.36;101066.69;5033510;28;20056;-88
2021/07/10 10:38:29;;;;;;;0.10;0.10;;;;;;;18.43;77.67;101063.94;5045466;28;20056;-89
2021/07/10 10:41:04;;;;;;;0.20;0.20;;;;;;;18.05;81.52;101061.78;5053055;28;20044;-88
2021/07/10 10:44:02;;;;;;;0.10;0.10;;;;;;;18.12;77.13;101070.41;5030158;28;20750;-90
2021/07/10 10:46:57;;;;;;;0.20;0.20;;;;;;;18.04;77.87;101071.19;5048451;28;20057;-90
2021/07/10 10:49:47;;;;;;;0.20;0.20;;;;;;;18.19;81.01;101073.47;5051077;28;20048;-88
2021/07/10 10:52:33;;;;;;;0.13;0.13;;;;;;;18.27;79.58;101069.94;5046754;28;20052;-89
2021/07/10 10:55:31;;;;;;;0.20;0.20;;;;;;;18.39;78.35;101074.78;5035271;28;20049;-88
2021/07/10 10:58:29;;;;;;;0.20;0.20;;;;;;;18.22;78.32;101078.34;5030850;28;20045;-89
2021/07/10 11:01:06;;;;;;;0.10;0.10;;;;;;;18.19;77.51;101079.78;5041174;28;20065;-91
2021/07/10 11:03:40;;;;;;;0.13;0.13;;;;;;;18.25;80.63;101076.88;5047181;28;20048;-89
2021/07/10 11:06:30;;;;;;;0.20;0.20;;;;;;;18.33;77.88;101074.13;5043119;28;20056;-91
2021/07/10 11:09:42;;;;;;;0.10;0.10;;;;;;;18.57;78.86;101074.78;5056091;28;20044;-89
2021/07/10 11:12:51;;;;;;;0.10;0.10;;;;;;;18.45;79.94;101075.44;5027009;28;20048;-90
2021/07/10 11:18:59;;;;;;;0.20;0.20;;;;;;;19.48;73.78;101067.31;5024765;28;20535;-90
2021/07/10 11:21:44;;;;;;;0.10;0.10;;;;;;;19.12;73.95;101056.75;5031709;28;20071;-90
2021/07/10 11:24:24;;;;;;;0.20;0.20;;;;;;;19.53;74.78;101074.63;5049360;28;20068;-90
2021/07/10 11:27:25;;;;;;;0.10;0.10;;;;;;;20.07;77.86;101079.56;5029749;28;20127;-91
2021/07/10 11:30:20;;;;;;;0.10;0.10;;;;;;;19.68;72.28;101051.19;5031084;28;20053;-92
2021/07/10 11:32:54;;;;;;;0.20;0.20;;;;;;;19.87;76.25;101070.91;5028808;28;20045;-90
2021/07/10 11:36:22;;;;;;;0.20;0.20;;;;;;;20.34;71.36;101069.94;5017492;28;20046;-89
2021/07/10 11:39:04;;;;;;;0.10;0.10;;;;;;;20.13;69.81;101071.88;5026032;28;20053;-91
2021/07/10 11:41:41;;;;;;;0.10;0.10;;;;;;;20.50;66.79;101063.81;5048910;28;20481;-90
2021/07/10 11:44:42;;;;;;;0.10;0.10;;;;;;;20.48;66.02;101068.84;5028216;28;20068;-90
2021/07/10 11:47:30;;;;;;;0.10;0.10;;;;;;;20.55;69.36;101061.66;5027831;28;20062;-90
2021/07/10 11:50:11;;;;;;;0.10;0.10;;;;;;;19.82;67.45;101037.94;5031405;28;20065;-90
2021/07/10 11:53:04;;;;;;;0.10;0.10;;;;;;;19.60;68.64;101063.88;5022797;28;20057;-91
2021/07/10 11:55:37;;;;;;;0.10;0.10;;;;;;;19.35;70.40;101057.31;5029516;28;20052;-91
2021/07/10 11:58:30;;;;;;;0.10;0.10;;;;;;;19.24;68.39;101067.06;5050171;28;20497;-90
2021/07/10 12:01:08;;;;;;;0.17;0.10;;;;;;;19.27;69.57;101066.44;5025780;28;20061;-90
2021/07/10 12:03:43;;;;;;;0.20;0.20;;;;;;;19.88;70.09;101055.13;5034061;28;20041;-91
2021/07/10 12:06:43;;;;;;;0.10;0.10;;;;;;;20.21;67.98;101062.72;5039503;28;20061;-91
2021/07/10 12:09:12;;;;;;;0.10;0.10;;;;;;;20.25;63.02;101051.81;5024570;28;20102;-88
2021/07/10 12:11:48;;;;;;;0.20;0.20;;;;;;;20.39;63.66;101058.66;5024147;28;20074;-89
2021/07/10 12:14:16;;;;;;;0.10;0.10;;;;;;;20.52;66.28;101036.63;5045840;28;20064;-90
2021/07/10 12:16:58;;;;;;;0.20;0.20;;;;;;;20.54;62.14;101057.25;5031149;28;20497;-91
2021/07/10 12:19:32;;;;;;;0.20;0.20;;;;;;;20.63;61.94;101032.31;5045301;28;20050;-91
2021/07/10 12:22:51;;;;;;;0.10;0.10;;;;;;;20.87;62.06;101055.69;5025314;28;20057;-91
2021/07/10 12:25:26;;;;;;;0.20;0.20;;;;;;;20.54;64.37;101071.06;5039554;28;20395;-91
2021/07/10 12:28:06;;;;;;;0.10;0.10;;;;;;;19.87;61.80;101051.59;5022895;28;20056;-91
2021/07/10 12:30:37;;;;;;;0.10;0.10;;;;;;;19.94;67.03;101058.50;5045765;28;20072;-91
2021/07/10 12:33:42;;;;;;;0.10;0.10;;;;;;;20.19;66.69;101056.72;5027899;28;20064;-90
2021/07/10 12:36:24;;;;;;;0.10;0.10;;;;;;;20.53;64.53;101050.09;5041359;28;20052;-90
2021/07/10 12:39:24;;;;;;;0.10;0.10;;;;;;;20.06;62.54;101050.31;5040156;28;20053;-92
2021/07/10 12:42:18;;;;;;;0.10;0.10;;;;;;;19.91;65.37;101059.19;5032642;28;20056;-90
2021/07/10 12:45:14;;;;;;;0.20;0.20;;;;;;;20.24;67.79;101052.97;5018851;28;20049;-91
2021/07/10 12:47:44;;;;;;;0.10;0.10;;;;;;;20.10;63.43;100996.00;5033104;28;20056;-91
2021/07/10 12:50:44;;;;;;;0.10;0.10;;;;;;;20.22;61.30;101050.53;5033052;28;20627;-90
2021/07/10 12:53:30;;;;;;;0.10;0.10;;;;;;;19.95;64.05;101049.09;5026724;28;20049;-90
2021/07/10 12:56:22;;;;;;;0.10;0.10;;;;;;;19.56;62.47;101048.31;5026954;28;20053;-89
2021/07/10 12:58:53;;;;;;;0.10;0.10;;;;;;;19.81;65.19;101050.13;5047502;28;20059;-89